Sylmar, CA (91342)

1:33 AM PST on January 31, 2015 (GMT -0800)
APRSWXNET Sylmar CA US | Change Station
CLOSE
Current Station
Personal Weather Station
Location: Sylmar, CA
Elevation: 1643 ft
Nearby Weather Stations

Elev 1643 ft 34.33 °N, 118.43 °W | Updated 29 minutes ago

Mostly Cloudy
Mostly Cloudy
53 °F
Feels Like 53 °F
N
0
Wind Variable Wind from North
Gusts 0.0 mph

Today
High -- | Low -- °F
--% Chance of Precip.
Yesterday
High -- | Low -- °F
Precip. -- in
6:52 AM 5:22 PM
Waxing Gibbous, 88% visible
Pressure 29.85 in
Visibility 10.0 miles
Clouds Clear
Dew Point 47 °F
Humidity 81%
Rainfall 0.18 in
Snow Depth Not available.
UV 0 out of 12
Pollen 6.90 out of 12
Air Quality Not available.
Flu Activity Not available.
METAR KVNY 310851Z 00000KT 10SM CLR 13/10 A2986 RMK AO2 SLP106 T01280100 58001

More Conditions Fewer Conditions

Pressure 29.85 in
Visibility 10.0 miles
Clouds Clear
Dew Point 47 °F
Humidity 81%
Rainfall 0.18 in
Snow Depth Not available.
UV 0 out of 12
Pollen 6.90 out of 12
Air Quality Not available.
Flu Activity Not available.
METAR KVNY 310851Z 00000KT 10SM CLR 13/10 A2986 RMK AO2 SLP106 T01280100 58001

More Conditions Fewer Conditions

10-Day Weather Forecast

Almanac

Astronomy

Jan. 31, 2015 Rise Set
Actual Time
Civil Twilight
Nautical Twilight
Astronomical Twilight
Moon
Length of Visible Light
Length of Day
Tomorrow will be .
, % of the Moon is Illuminated

Today's Extremes

State Highs State Lows

Community

WunderPhotos

Upload Photos

1,792,021 photos uploaded!

WunderBlogs® & News

Nearby

Air Quality

  Air Quality AQ Index Pollutant
Not available.

Snow Depth

Station Depth Elevation

Earthquake Activity

City Distance Mag. Time & Date
Minimum magnitude displayed is 2.5.

Coastal Water Temperatures

Place Temperature

Nearby Weather Stations